sensor_id;sensor_type;location;lat;lon;timestamp;pressure;altitude;pressure_sealevel;temperature;humidity
52855;BME280;38719;51.418;7.286;2023-04-19T00:02:20;100836.72;;;12.12;64.16
52855;BME280;38719;51.418;7.286;2023-04-19T00:04:48;100842.88;;;11.89;64.68
52855;BME280;38719;51.418;7.286;2023-04-19T00:07:17;100836.66;;;12.14;64.58
52855;BME280;38719;51.418;7.286;2023-04-19T00:09:45;100833.00;;;12.16;64.18
52855;BME280;38719;51.418;7.286;2023-04-19T00:12:13;100837.66;;;12.11;64.57
52855;BME280;38719;51.418;7.286;2023-04-19T00:14:40;100845.44;;;12.17;64.52
52855;BME280;38719;51.418;7.286;2023-04-19T00:17:08;100834.91;;;12.13;64.85
52855;BME280;38719;51.418;7.286;2023-04-19T00:19:36;100840.84;;;11.97;65.99
52855;BME280;38719;51.418;7.286;2023-04-19T00:22:04;100832.44;;;12.32;64.82
52855;BME280;38719;51.418;7.286;2023-04-19T00:24:33;100834.97;;;12.35;65.08
52855;BME280;38719;51.418;7.286;2023-04-19T00:27:00;100839.28;;;12.39;64.78
52855;BME280;38719;51.418;7.286;2023-04-19T00:29:29;100838.78;;;12.05;65.52
52855;BME280;38719;51.418;7.286;2023-04-19T00:31:56;100841.22;;;12.35;65.47
52855;BME280;38719;51.418;7.286;2023-04-19T00:34:24;100838.47;;;12.37;64.50
52855;BME280;38719;51.418;7.286;2023-04-19T00:36:51;100838.88;;;12.02;66.18
52855;BME280;38719;51.418;7.286;2023-04-19T00:39:19;100834.69;;;12.19;65.77
52855;BME280;38719;51.418;7.286;2023-04-19T00:41:48;100826.16;;;12.33;64.97
52855;BME280;38719;51.418;7.286;2023-04-19T00:44:15;100824.50;;;12.30;66.15
52855;BME280;38719;51.418;7.286;2023-04-19T00:46:43;100821.03;;;12.50;65.01
52855;BME280;38719;51.418;7.286;2023-04-19T00:49:11;100825.47;;;12.28;66.07
52855;BME280;38719;51.418;7.286;2023-04-19T00:51:38;100832.66;;;12.49;64.58
52855;BME280;38719;51.418;7.286;2023-04-19T00:54:06;100828.53;;;12.40;65.49
52855;BME280;38719;51.418;7.286;2023-04-19T00:56:34;100820.34;;;12.45;65.73
52855;BME280;38719;51.418;7.286;2023-04-19T00:59:03;100823.72;;;12.50;65.18
52855;BME280;38719;51.418;7.286;2023-04-19T01:01:32;100825.69;;;12.45;64.81
52855;BME280;38719;51.418;7.286;2023-04-19T01:04:00;100826.47;;;12.47;65.09
52855;BME280;38719;51.418;7.286;2023-04-19T01:06:29;100821.69;;;12.33;65.98
52855;BME280;38719;51.418;7.286;2023-04-19T01:08:57;100820.69;;;12.36;65.01
52855;BME280;38719;51.418;7.286;2023-04-19T01:11:25;100815.63;;;12.52;65.05
52855;BME280;38719;51.418;7.286;2023-04-19T01:13:54;100807.03;;;12.44;64.95
52855;BME280;38719;51.418;7.286;2023-04-19T01:16:24;100814.78;;;12.51;65.26
52855;BME280;38719;51.418;7.286;2023-04-19T01:18:52;100817.53;;;12.48;65.08
52855;BME280;38719;51.418;7.286;2023-04-19T01:21:20;100819.72;;;12.61;64.42
52855;BME280;38719;51.418;7.286;2023-04-19T01:23:50;100815.03;;;12.67;64.19
52855;BME280;38719;51.418;7.286;2023-04-19T01:26:17;100810.28;;;12.52;65.21
52855;BME280;38719;51.418;7.286;2023-04-19T01:28:45;100807.53;;;12.53;64.64
52855;BME280;38719;51.418;7.286;2023-04-19T01:31:13;100803.94;;;12.54;65.21
52855;BME280;38719;51.418;7.286;2023-04-19T01:33:40;100806.94;;;12.47;65.31
52855;BME280;38719;51.418;7.286;2023-04-19T01:36:08;100804.88;;;12.53;64.28
52855;BME280;38719;51.418;7.286;2023-04-19T01:38:35;100807.53;;;12.53;64.65
52855;BME280;38719;51.418;7.286;2023-04-19T01:41:05;100804.31;;;12.45;64.21
52855;BME280;38719;51.418;7.286;2023-04-19T01:43:33;100801.91;;;12.39;64.81
52855;BME280;38719;51.418;7.286;2023-04-19T01:46:00;100803.88;;;12.10;66.13
52855;BME280;38719;51.418;7.286;2023-04-19T01:48:28;100805.97;;;12.02;66.81
52855;BME280;38719;51.418;7.286;2023-04-19T01:50:55;100798.88;;;12.01;66.31
52855;BME280;38719;51.418;7.286;2023-04-19T01:53:23;100795.03;;;12.32;66.31
52855;BME280;38719;51.418;7.286;2023-04-19T01:55:50;100800.59;;;12.49;64.98
52855;BME280;38719;51.418;7.286;2023-04-19T01:58:19;100803.69;;;12.38;65.72
52855;BME280;38719;51.418;7.286;2023-04-19T02:00:46;100807.09;;;12.42;66.23
52855;BME280;38719;51.418;7.286;2023-04-19T02:03:14;100799.22;;;12.39;65.71
52855;BME280;38719;51.418;7.286;2023-04-19T02:05:42;100796.34;;;12.44;64.89
52855;BME280;38719;51.418;7.286;2023-04-19T02:08:09;100792.75;;;12.67;64.78
52855;BME280;38719;51.418;7.286;2023-04-19T02:10:37;100798.19;;;12.65;64.29
52855;BME280;38719;51.418;7.286;2023-04-19T02:13:04;100798.59;;;12.54;64.67
52855;BME280;38719;51.418;7.286;2023-04-19T02:15:35;100799.53;;;12.53;64.14
52855;BME280;38719;51.418;7.286;2023-04-19T02:18:03;100789.56;;;12.35;65.19
52855;BME280;38719;51.418;7.286;2023-04-19T02:20:32;100797.81;;;12.29;64.57
52855;BME280;38719;51.418;7.286;2023-04-19T02:22:59;100796.78;;;12.33;64.78
52855;BME280;38719;51.418;7.286;2023-04-19T02:25:27;100792.91;;;12.18;64.95
52855;BME280;38719;51.418;7.286;2023-04-19T02:27:54;100801.78;;;12.18;64.15
52855;BME280;38719;51.418;7.286;2023-04-19T02:30:22;100798.13;;;12.21;64.81
52855;BME280;38719;51.418;7.286;2023-04-19T02:32:51;100795.44;;;12.21;64.13
52855;BME280;38719;51.418;7.286;2023-04-19T02:35:20;100780.84;;;11.82;64.07
52855;BME280;38719;51.418;7.286;2023-04-19T02:37:48;100782.63;;;11.82;65.28
52855;BME280;38719;51.418;7.286;2023-04-19T02:40:15;100781.66;;;11.84;63.95
52855;BME280;38719;51.418;7.286;2023-04-19T02:42:43;100784.50;;;12.05;63.55
52855;BME280;38719;51.418;7.286;2023-04-19T02:45:10;100784.97;;;11.91;63.03
52855;BME280;38719;51.418;7.286;2023-04-19T02:47:38;100799.50;;;11.58;64.21
52855;BME280;38719;51.418;7.286;2023-04-19T02:50:08;100793.88;;;11.66;63.85
52855;BME280;38719;51.418;7.286;2023-04-19T02:52:37;100794.47;;;12.00;62.97
52855;BME280;38719;51.418;7.286;2023-04-19T02:55:05;100795.19;;;11.80;63.07
52855;BME280;38719;51.418;7.286;2023-04-19T02:57:33;100793.38;;;12.05;62.06
52855;BME280;38719;51.418;7.286;2023-04-19T03:00:00;100795.88;;;12.34;61.12
52855;BME280;38719;51.418;7.286;2023-04-19T03:02:30;100786.88;;;12.36;60.29
52855;BME280;38719;51.418;7.286;2023-04-19T03:04:58;100793.22;;;12.32;60.42
52855;BME280;38719;51.418;7.286;2023-04-19T03:07:27;100790.88;;;12.24;60.00
52855;BME280;38719;51.418;7.286;2023-04-19T03:09:55;100795.41;;;11.73;61.11
52855;BME280;38719;51.418;7.286;2023-04-19T03:12:22;100790.88;;;12.01;61.02
52855;BME280;38719;51.418;7.286;2023-04-19T03:14:50;100791.75;;;12.01;61.40
52855;BME280;38719;51.418;7.286;2023-04-19T03:17:17;100795.91;;;12.08;60.66
52855;BME280;38719;51.418;7.286;2023-04-19T03:19:45;100798.06;;;12.22;59.69
52855;BME280;38719;51.418;7.286;2023-04-19T03:22:12;100787.22;;;12.27;59.97
52855;BME280;38719;51.418;7.286;2023-04-19T03:24:41;100784.91;;;12.18;60.31
52855;BME280;38719;51.418;7.286;2023-04-19T03:27:08;100783.13;;;11.93;60.24
52855;BME280;38719;51.418;7.286;2023-04-19T03:29:36;100790.28;;;12.16;60.49
52855;BME280;38719;51.418;7.286;2023-04-19T03:32:03;100781.78;;;12.29;59.61
52855;BME280;38719;51.418;7.286;2023-04-19T03:34:31;100786.06;;;12.11;59.65
52855;BME280;38719;51.418;7.286;2023-04-19T03:36:59;100788.97;;;12.04;59.62
52855;BME280;38719;51.418;7.286;2023-04-19T03:39:26;100785.28;;;11.83;59.22
52855;BME280;38719;51.418;7.286;2023-04-19T03:41:55;100780.28;;;11.99;59.41
52855;BME280;38719;51.418;7.286;2023-04-19T03:44:22;100778.41;;;11.76;60.66
52855;BME280;38719;51.418;7.286;2023-04-19T03:46:50;100775.44;;;12.09;59.67
52855;BME280;38719;51.418;7.286;2023-04-19T03:49:17;100770.78;;;11.90;60.23
52855;BME280;38719;51.418;7.286;2023-04-19T03:51:45;100773.19;;;11.98;59.47
52855;BME280;38719;51.418;7.286;2023-04-19T03:54:12;100771.50;;;12.19;58.54
52855;BME280;38719;51.418;7.286;2023-04-19T03:56:40;100770.84;;;12.13;58.29
52855;BME280;38719;51.418;7.286;2023-04-19T03:59:09;100774.31;;;12.15;58.54
52855;BME280;38719;51.418;7.286;2023-04-19T04:01:36;100774.91;;;12.23;57.54
52855;BME280;38719;51.418;7.286;2023-04-19T04:04:07;100773.94;;;12.02;58.87
52855;BME280;38719;51.418;7.286;2023-04-19T04:06:35;100779.38;;;11.99;58.35
52855;BME280;38719;51.418;7.286;2023-04-19T04:09:03;100773.94;;;12.02;58.83
52855;BME280;38719;51.418;7.286;2023-04-19T04:11:30;100778.88;;;11.87;58.33
52855;BME280;38719;51.418;7.286;2023-04-19T04:13:58;100783.94;;;11.95;58.61
52855;BME280;38719;51.418;7.286;2023-04-19T04:16:26;100777.34;;;11.56;58.52
52855;BME280;38719;51.418;7.286;2023-04-19T04:18:54;100782.53;;;11.61;58.55
52855;BME280;38719;51.418;7.286;2023-04-19T04:21:22;100778.41;;;11.51;57.34
52855;BME280;38719;51.418;7.286;2023-04-19T04:23:50;100782.09;;;11.72;56.20
52855;BME280;38719;51.418;7.286;2023-04-19T04:26:18;100784.06;;;11.67;56.12
52855;BME280;38719;51.418;7.286;2023-04-19T04:28:47;100791.34;;;11.38;56.33
52855;BME280;38719;51.418;7.286;2023-04-19T04:31:14;100792.63;;;11.26;56.33
52855;BME280;38719;51.418;7.286;2023-04-19T04:33:45;100794.91;;;11.11;56.97
52855;BME280;38719;51.418;7.286;2023-04-19T04:36:13;100793.16;;;11.37;55.79
52855;BME280;38719;51.418;7.286;2023-04-19T04:38:40;100796.25;;;11.23;55.94
52855;BME280;38719;51.418;7.286;2023-04-19T04:41:08;100795.19;;;11.02;57.03
52855;BME280;38719;51.418;7.286;2023-04-19T04:43:35;100798.53;;;10.82;56.38
52855;BME280;38719;51.418;7.286;2023-04-19T04:46:03;100801.38;;;11.29;56.09
52855;BME280;38719;51.418;7.286;2023-04-19T04:48:31;100796.47;;;11.17;55.51
52855;BME280;38719;51.418;7.286;2023-04-19T04:51:00;100812.16;;;11.26;55.81
52855;BME280;38719;51.418;7.286;2023-04-19T04:53:27;100787.47;;;11.21;55.66
52855;BME280;38719;51.418;7.286;2023-04-19T04:55:55;100803.41;;;10.96;56.31
52855;BME280;38719;51.418;7.286;2023-04-19T04:58:22;100795.53;;;10.93;55.79
52855;BME280;38719;51.418;7.286;2023-04-19T05:00:50;100795.81;;;11.10;55.58
52855;BME280;38719;51.418;7.286;2023-04-19T05:03:17;100796.81;;;11.08;55.73
52855;BME280;38719;51.418;7.286;2023-04-19T05:05:45;100792.53;;;11.02;55.42
52855;BME280;38719;51.418;7.286;2023-04-19T05:08:14;100793.22;;;11.09;54.99
52855;BME280;38719;51.418;7.286;2023-04-19T05:10:41;100795.47;;;10.94;55.72
52855;BME280;38719;51.418;7.286;2023-04-19T05:13:09;100786.91;;;11.11;54.96
52855;BME280;38719;51.418;7.286;2023-04-19T05:15:37;100796.03;;;11.04;55.74
52855;BME280;38719;51.418;7.286;2023-04-19T05:18:05;100796.88;;;11.05;55.57
52855;BME280;38719;51.418;7.286;2023-04-19T05:20:32;100794.78;;;11.15;55.72
52855;BME280;38719;51.418;7.286;2023-04-19T05:23:00;100789.50;;;11.13;54.87
52855;BME280;38719;51.418;7.286;2023-04-19T05:25:30;100784.59;;;11.27;54.93
52855;BME280;38719;51.418;7.286;2023-04-19T05:27:57;100791.41;;;11.09;55.53
52855;BME280;38719;51.418;7.286;2023-04-19T05:30:25;100783.97;;;11.19;54.16
52855;BME280;38719;51.418;7.286;2023-04-19T05:32:52;100789.66;;;11.08;54.84
52855;BME280;38719;51.418;7.286;2023-04-19T05:35:20;100784.81;;;11.21;54.96
52855;BME280;38719;51.418;7.286;2023-04-19T05:37:47;100790.56;;;11.09;54.29
52855;BME280;38719;51.418;7.286;2023-04-19T05:40:15;100796.13;;;11.01;54.27
52855;BME280;38719;51.418;7.286;2023-04-19T05:42:44;100792.34;;;10.82;53.96
52855;BME280;38719;51.418;7.286;2023-04-19T05:45:11;100783.00;;;11.22;53.22
52855;BME280;38719;51.418;7.286;2023-04-19T05:47:40;100792.78;;;10.94;52.94
52855;BME280;38719;51.418;7.286;2023-04-19T05:50:09;100786.00;;;10.57;53.91
52855;BME280;38719;51.418;7.286;2023-04-19T05:52:36;100791.91;;;10.67;53.92
52855;BME280;38719;51.418;7.286;2023-04-19T05:55:04;100792.94;;;10.90;52.84
52855;BME280;38719;51.418;7.286;2023-04-19T05:57:32;100792.53;;;11.02;52.55
52855;BME280;38719;51.418;7.286;2023-04-19T06:00:01;100795.75;;;11.12;52.12
52855;BME280;38719;51.418;7.286;2023-04-19T06:02:29;100792.41;;;11.32;50.78
52855;BME280;38719;51.418;7.286;2023-04-19T06:04:57;100805.06;;;11.00;52.43
52855;BME280;38719;51.418;7.286;2023-04-19T06:07:30;100785.28;;;11.33;52.07
52855;BME280;38719;51.418;7.286;2023-04-19T06:10:06;100789.44;;;11.41;53.10
52855;BME280;38719;51.418;7.286;2023-04-19T06:12:34;100782.91;;;11.25;51.83
52855;BME280;38719;51.418;7.286;2023-04-19T06:15:03;100780.72;;;11.36;52.04
52855;BME280;38719;51.418;7.286;2023-04-19T06:17:31;100788.53;;;11.16;52.20
52855;BME280;38719;51.418;7.286;2023-04-19T06:19:59;100789.22;;;10.95;51.99
52855;BME280;38719;51.418;7.286;2023-04-19T06:22:27;100776.81;;;11.21;51.76
52855;BME280;38719;51.418;7.286;2023-04-19T06:24:54;100789.50;;;11.13;52.31
52855;BME280;38719;51.418;7.286;2023-04-19T06:27:22;100787.03;;;11.34;51.76
52855;BME280;38719;51.418;7.286;2023-04-19T06:29:49;100776.91;;;11.18;52.11
52855;BME280;38719;51.418;7.286;2023-04-19T06:32:18;100787.06;;;11.07;51.05
52855;BME280;38719;51.418;7.286;2023-04-19T06:34:46;100788.53;;;11.16;51.25
52855;BME280;38719;51.418;7.286;2023-04-19T06:37:13;100781.47;;;11.15;50.69
52855;BME280;38719;51.418;7.286;2023-04-19T06:39:40;100786.44;;;10.99;49.46
52855;BME280;38719;51.418;7.286;2023-04-19T06:42:08;100794.19;;;10.79;50.19
52855;BME280;38719;51.418;7.286;2023-04-19T06:44:36;100782.75;;;11.03;50.01
52855;BME280;38719;51.418;7.286;2023-04-19T06:47:03;100782.13;;;10.94;49.32
52855;BME280;38719;51.418;7.286;2023-04-19T06:49:32;100782.75;;;10.76;48.58
52855;BME280;38719;51.418;7.286;2023-04-19T06:52:00;100788.28;;;10.96;49.33
52855;BME280;38719;51.418;7.286;2023-04-19T06:54:27;100788.09;;;11.03;48.12
52855;BME280;38719;51.418;7.286;2023-04-19T06:56:55;100781.38;;;11.18;48.20
52855;BME280;38719;51.418;7.286;2023-04-19T06:59:23;100784.69;;;10.97;48.61
52855;BME280;38719;51.418;7.286;2023-04-19T07:01:53;100781.81;;;11.04;47.85
52855;BME280;38719;51.418;7.286;2023-04-19T07:04:23;100777.50;;;11.26;47.43
52855;BME280;38719;51.418;7.286;2023-04-19T07:06:53;100785.22;;;11.09;47.25
52855;BME280;38719;51.418;7.286;2023-04-19T07:09:20;100781.78;;;11.05;47.41
52855;BME280;38719;51.418;7.286;2023-04-19T07:11:48;100788.09;;;11.03;47.38
52855;BME280;38719;51.418;7.286;2023-04-19T07:14:16;100781.28;;;10.94;46.64
52855;BME280;38719;51.418;7.286;2023-04-19T07:16:45;100777.72;;;11.20;47.83
52855;BME280;38719;51.418;7.286;2023-04-19T07:19:12;100781.56;;;10.85;46.69
52855;BME280;38719;51.418;7.286;2023-04-19T07:21:40;100784.69;;;10.97;47.75
52855;BME280;38719;51.418;7.286;2023-04-19T07:24:09;100780.25;;;11.25;47.01
52855;BME280;38719;51.418;7.286;2023-04-19T07:26:36;100775.94;;;10.94;45.99
52855;BME280;38719;51.418;7.286;2023-04-19T07:29:04;100769.31;;;10.79;46.42
52855;BME280;38719;51.418;7.286;2023-04-19T07:31:31;100780.91;;;11.05;46.74
52855;BME280;38719;51.418;7.286;2023-04-19T07:33:59;100777.47;;;11.01;46.23
52855;BME280;38719;51.418;7.286;2023-04-19T07:36:27;100776.81;;;10.94;46.11
52855;BME280;38719;51.418;7.286;2023-04-19T07:38:54;100765.03;;;11.27;45.88
52855;BME280;38719;51.418;7.286;2023-04-19T07:41:24;100770.00;;;11.12;45.17
52855;BME280;38719;51.418;7.286;2023-04-19T07:43:52;100771.28;;;11.26;44.96
52855;BME280;38719;51.418;7.286;2023-04-19T07:46:20;100767.41;;;11.35;46.05
52855;BME280;38719;51.418;7.286;2023-04-19T07:48:47;100773.41;;;11.16;44.49
52855;BME280;38719;51.418;7.286;2023-04-19T07:51:15;100772.31;;;11.22;44.81
52855;BME280;38719;51.418;7.286;2023-04-19T07:53:45;100767.00;;;11.22;44.77
52855;BME280;38719;51.418;7.286;2023-04-19T07:56:13;100776.09;;;11.41;45.74
52855;BME280;38719;51.418;7.286;2023-04-19T07:58:42;100762.53;;;11.22;44.35
52855;BME280;38719;51.418;7.286;2023-04-19T08:01:16;100778.84;;;11.38;44.57
52855;BME280;38719;51.418;7.286;2023-04-19T08:03:43;100770.19;;;11.57;43.37
52855;BME280;38719;51.418;7.286;2023-04-19T08:06:12;100767.72;;;11.52;43.36
52855;BME280;38719;51.418;7.286;2023-04-19T08:08:40;100768.19;;;11.64;44.41
52855;BME280;38719;51.418;7.286;2023-04-19T08:11:07;100759.41;;;11.36;43.93
52855;BME280;38719;51.418;7.286;2023-04-19T08:13:35;100780.66;;;11.38;44.63
52855;BME280;38719;51.418;7.286;2023-04-19T08:16:04;100771.66;;;11.66;45.08
52855;BME280;38719;51.418;7.286;2023-04-19T08:18:34;100778.59;;;11.97;44.47
52855;BME280;38719;51.418;7.286;2023-04-19T08:21:02;100775.75;;;11.76;43.22
52855;BME280;38719;51.418;7.286;2023-04-19T08:23:30;100778.22;;;11.32;43.07
52855;BME280;38719;51.418;7.286;2023-04-19T08:26:13;100773.28;;;11.46;43.78
52855;BME280;38719;51.418;7.286;2023-04-19T08:28:40;100786.94;;;11.62;42.95
52855;BME280;38719;51.418;7.286;2023-04-19T08:31:09;100780.88;;;11.57;42.02
52855;BME280;38719;51.418;7.286;2023-04-19T08:33:37;100781.56;;;11.87;43.50
52855;BME280;38719;51.418;7.286;2023-04-19T08:36:06;100775.81;;;11.24;43.05
52855;BME280;38719;51.418;7.286;2023-04-19T08:38:33;100770.50;;;11.24;43.23
52855;BME280;38719;51.418;7.286;2023-04-19T08:41:01;100785.72;;;11.20;43.36
52855;BME280;38719;51.418;7.286;2023-04-19T08:43:29;100783.00;;;11.47;44.08
52855;BME280;38719;51.418;7.286;2023-04-19T08:45:58;100775.31;;;11.63;44.47
52855;BME280;38719;51.418;7.286;2023-04-19T08:48:28;100795.53;;;11.45;42.58
52855;BME280;38719;51.418;7.286;2023-04-19T08:50:56;100781.41;;;11.92;43.41
52855;BME280;38719;51.418;7.286;2023-04-19T08:53:33;100777.81;;;11.93;43.76
52855;BME280;38719;51.418;7.286;2023-04-19T08:56:01;100777.75;;;12.18;42.65
52855;BME280;38719;51.418;7.286;2023-04-19T08:58:46;100763.34;;;12.22;42.55
52855;BME280;38719;51.418;7.286;2023-04-19T09:01:16;100785.75;;;12.18;42.39
52855;BME280;38719;51.418;7.286;2023-04-19T09:03:49;100775.94;;;12.19;44.40
52855;BME280;38719;51.418;7.286;2023-04-19T09:06:34;100774.03;;;12.22;42.73
52855;BME280;38719;51.418;7.286;2023-04-19T09:09:16;100775.53;;;12.30;40.86
52855;BME280;38719;51.418;7.286;2023-04-19T09:11:47;100773.63;;;12.55;42.47
52855;BME280;38719;51.418;7.286;2023-04-19T09:14:16;100771.97;;;12.07;41.17
52855;BME280;38719;51.418;7.286;2023-04-19T09:16:44;100775.66;;;12.27;41.26
52855;BME280;38719;51.418;7.286;2023-04-19T09:19:13;100763.50;;;12.41;39.88
52855;BME280;38719;51.418;7.286;2023-04-19T09:21:50;100765.25;;;12.43;41.48
52855;BME280;38719;51.418;7.286;2023-04-19T09:24:36;100766.63;;;12.75;40.75
52855;BME280;38719;51.418;7.286;2023-04-19T09:27:28;100757.97;;;13.11;39.45
52855;BME280;38719;51.418;7.286;2023-04-19T09:29:57;100763.78;;;13.00;38.85
52855;BME280;38719;51.418;7.286;2023-04-19T09:32:25;100765.13;;;12.46;38.79
52855;BME280;38719;51.418;7.286;2023-04-19T09:34:55;100764.28;;;12.88;38.41
52855;BME280;38719;51.418;7.286;2023-04-19T09:37:24;100756.81;;;12.96;38.09
52855;BME280;38719;51.418;7.286;2023-04-19T09:40:21;100750.03;;;13.30;39.16
52855;BME280;38719;51.418;7.286;2023-04-19T09:42:49;100753.03;;;13.22;38.69
52855;BME280;38719;51.418;7.286;2023-04-19T09:45:19;100737.38;;;13.34;37.34
52855;BME280;38719;51.418;7.286;2023-04-19T09:48:00;100741.91;;;13.73;37.43
52855;BME280;38719;51.418;7.286;2023-04-19T09:50:29;100740.97;;;13.74;37.19
52855;BME280;38719;51.418;7.286;2023-04-19T09:53:01;100739.69;;;13.83;37.02
52855;BME280;38719;51.418;7.286;2023-04-19T09:55:29;100725.88;;;14.11;36.98
52855;BME280;38719;51.418;7.286;2023-04-19T09:58:14;100730.19;;;13.57;36.27
52855;BME280;38719;51.418;7.286;2023-04-19T10:00:43;100734.97;;;13.07;36.96
52855;BME280;38719;51.418;7.286;2023-04-19T10:03:16;100744.59;;;13.11;38.08
52855;BME280;38719;51.418;7.286;2023-04-19T10:05:45;100728.25;;;13.40;36.98
52855;BME280;38719;51.418;7.286;2023-04-19T10:08:14;100729.34;;;13.75;37.37
52855;BME280;38719;51.418;7.286;2023-04-19T10:10:44;100721.59;;;13.69;35.91
52855;BME280;38719;51.418;7.286;2023-04-19T10:13:12;100716.09;;;13.72;35.57
52855;BME280;38719;51.418;7.286;2023-04-19T10:15:48;100726.19;;;13.86;35.59
52855;BME280;38719;51.418;7.286;2023-04-19T10:18:23;100718.56;;;14.51;35.98
52855;BME280;38719;51.418;7.286;2023-04-19T10:20:56;100720.91;;;14.59;35.62
52855;BME280;38719;51.418;7.286;2023-04-19T10:23:25;100731.91;;;14.72;35.87
52855;BME280;38719;51.418;7.286;2023-04-19T10:25:55;100710.38;;;14.18;35.24
52855;BME280;38719;51.418;7.286;2023-04-19T10:28:23;100714.78;;;14.75;35.47
52855;BME280;38719;51.418;7.286;2023-04-19T10:30:52;100714.16;;;14.70;35.33
52855;BME280;38719;51.418;7.286;2023-04-19T10:33:24;100716.25;;;14.63;34.63
52855;BME280;38719;51.418;7.286;2023-04-19T10:35:56;100703.91;;;14.78;35.26
52855;BME280;38719;51.418;7.286;2023-04-19T10:38:35;100708.75;;;14.89;34.14
52855;BME280;38719;51.418;7.286;2023-04-19T10:41:04;100701.00;;;15.00;34.22
52855;BME280;38719;51.418;7.286;2023-04-19T10:43:43;100702.63;;;15.38;34.32
52855;BME280;38719;51.418;7.286;2023-04-19T10:46:35;100704.47;;;15.20;32.64
52855;BME280;38719;51.418;7.286;2023-04-19T10:49:04;100693.06;;;15.50;33.36
52855;BME280;38719;51.418;7.286;2023-04-19T10:51:36;100691.03;;;15.37;32.98
52855;BME280;38719;51.418;7.286;2023-04-19T10:54:05;100690.91;;;15.72;33.48
52855;BME280;38719;51.418;7.286;2023-04-19T10:56:57;100687.19;;;15.75;32.64
52855;BME280;38719;51.418;7.286;2023-04-19T10:59:28;100687.50;;;15.86;32.41
52855;BME280;38719;51.418;7.286;2023-04-19T11:01:56;100670.19;;;15.92;34.21
52855;BME280;38719;51.418;7.286;2023-04-19T11:04:57;100667.44;;;15.60;32.72
52855;BME280;38719;51.418;7.286;2023-04-19T11:07:27;100672.13;;;15.72;33.39
52855;BME280;38719;51.418;7.286;2023-04-19T11:09:55;100668.31;;;15.76;32.93
52855;BME280;38719;51.418;7.286;2023-04-19T11:12:22;100665.09;;;15.70;31.46
52855;BME280;38719;51.418;7.286;2023-04-19T11:14:51;100668.47;;;16.07;31.53
52855;BME280;38719;51.418;7.286;2023-04-19T11:17:21;100665.16;;;15.86;32.08
52855;BME280;38719;51.418;7.286;2023-04-19T11:19:55;100654.41;;;16.02;32.19
52855;BME280;38719;51.418;7.286;2023-04-19T11:22:25;100657.63;;;15.92;30.17
52855;BME280;38719;51.418;7.286;2023-04-19T11:24:54;100664.47;;;16.30;31.33
52855;BME280;38719;51.418;7.286;2023-04-19T11:27:21;100657.69;;;16.39;31.54
52855;BME280;38719;51.418;7.286;2023-04-19T11:29:49;100652.66;;;16.33;30.65
52855;BME280;38719;51.418;7.286;2023-04-19T11:32:20;100654.41;;;16.18;29.38
52855;BME280;38719;51.418;7.286;2023-04-19T11:34:47;100641.13;;;16.31;30.55
52855;BME280;38719;51.418;7.286;2023-04-19T11:37:15;100638.44;;;16.31;30.12
52855;BME280;38719;51.418;7.286;2023-04-19T11:39:45;100645.75;;;16.13;29.92
52855;BME280;38719;51.418;7.286;2023-04-19T11:42:19;100633.69;;;16.20;29.51
52855;BME280;38719;51.418;7.286;2023-04-19T11:44:49;100627.97;;;16.56;30.91
52855;BME280;38719;51.418;7.286;2023-04-19T11:47:18;100618.34;;;16.83;31.51
52855;BME280;38719;51.418;7.286;2023-04-19T11:49:46;100609.88;;;16.74;30.05
52855;BME280;38719;51.418;7.286;2023-04-19T11:52:19;100607.78;;;16.19;28.38
52855;BME280;38719;51.418;7.286;2023-04-19T11:54:47;100602.81;;;16.27;30.10
52855;BME280;38719;51.418;7.286;2023-04-19T11:57:27;100604.75;;;15.77;29.73
52855;BME280;38719;51.418;7.286;2023-04-19T12:00:03;100600.78;;;16.47;30.21
52855;BME280;38719;51.418;7.286;2023-04-19T12:02:36;100585.47;;;16.77;30.03
52855;BME280;38719;51.418;7.286;2023-04-19T12:05:09;100587.69;;;16.85;28.96
52855;BME280;38719;51.418;7.286;2023-04-19T12:08:02;100581.75;;;16.35;30.17
52855;BME280;38719;51.418;7.286;2023-04-19T12:10:30;100579.69;;;16.55;30.12
52855;BME280;38719;51.418;7.286;2023-04-19T12:12:59;100577.03;;;16.84;29.79
52855;BME280;38719;51.418;7.286;2023-04-19T12:15:40;100584.59;;;16.93;29.83
52855;BME280;38719;51.418;7.286;2023-04-19T12:18:08;100564.88;;;17.07;29.58
52855;BME280;38719;51.418;7.286;2023-04-19T12:20:37;100570.06;;;17.24;29.29
52855;BME280;38719;51.418;7.286;2023-04-19T12:23:04;100567.78;;;17.33;29.28
52855;BME280;38719;51.418;7.286;2023-04-19T12:25:36;100568.31;;;17.52;28.74
52855;BME280;38719;51.418;7.286;2023-04-19T12:28:05;100559.06;;;17.71;29.45
52855;BME280;38719;51.418;7.286;2023-04-19T12:30:34;100556.13;;;17.74;30.16
52855;BME280;38719;51.418;7.286;2023-04-19T12:33:02;100552.47;;;17.48;30.01
52855;BME280;38719;51.418;7.286;2023-04-19T12:35:30;100555.72;;;17.38;30.33
52855;BME280;38719;51.418;7.286;2023-04-19T12:37:58;100555.53;;;17.56;30.16
52855;BME280;38719;51.418;7.286;2023-04-19T12:40:26;100556.63;;;17.81;28.79
52855;BME280;38719;51.418;7.286;2023-04-19T12:42:54;100545.63;;;17.84;28.57
52855;BME280;38719;51.418;7.286;2023-04-19T12:45:22;100547.91;;;17.63;27.22
52855;BME280;38719;51.418;7.286;2023-04-19T12:47:50;100546.44;;;17.71;28.21
52855;BME280;38719;51.418;7.286;2023-04-19T12:50:18;100551.94;;;17.70;27.65
52855;BME280;38719;51.418;7.286;2023-04-19T12:52:45;100547.34;;;17.99;28.37
52855;BME280;38719;51.418;7.286;2023-04-19T12:55:13;100552.53;;;17.88;28.34
52855;BME280;38719;51.418;7.286;2023-04-19T12:57:41;100537.38;;;18.14;29.46
52855;BME280;38719;51.418;7.286;2023-04-19T13:00:09;100543.19;;;17.66;27.87
52855;BME280;38719;51.418;7.286;2023-04-19T13:02:39;100541.66;;;17.62;28.57